Aviation Digital Data Service (ADDS)

Output produced by METARs form (0352 UTC 19 August 2019)
found at http://www.aviationweather.gov/metar/data/
 
Forecast for: DNYO (YOLA , NG)
Text: TAF DNYO 182300Z 1900/2006 20006KT 9999 TS SCT011 FEW019CB
Forecast period: 0000 to 0400 UTC 19 August 2019
Forecast type: FROM: standard forecast or significant change
Winds: from the SSW (200 degrees) at 7 MPH (6 knots; 3.1 m/s)
Visibility: 6 or more miles 10+ km)
Ceiling: at least 12,000 feet AGL
Clouds: scattered clouds at 1100 feet AGL
few clouds at 1900 feet AGL
Weather: TS  (thunderstorm)
Text: PROB30
Forecast period: 0000 to 0400 UTC 19 August 2019
Forecast type: TEMPORARY: The following changes expected for less than half the time period
Visibility: 3 miles (5 km)
Ceiling: 1000 feet AGL
Clouds: broken clouds at 1000 feet AGL
few clouds at 1800 feet AGL
Weather: TSRA  (rain associated with thunderstorm(s))
Text: TEMPO 1900/1904 5000 TSRA BKN010 FEW018CB
Forecast period: 0400 UTC 19 August 2019 to 0600 UTC 20 August 2019
Forecast type: BECOMING: Conditions expected to become as follows by 0600 UTC 19 August 2019
Winds: from the SSW (200 degrees) at 7 MPH (6 knots; 3.1 m/s)
Visibility: 6 or more miles 10+ km)
Ceiling: at least 12,000 feet AGL
Clouds: scattered clouds at 1100 feet AGL
Weather: NSW  (no significant weather)